createdAt,value
2023-02-07T00:01:38.962Z,49.95
2023-02-07T00:04:07.398Z,50.30
2023-02-07T00:06:36.774Z,50.60
2023-02-07T00:09:08.261Z,50.20
2023-02-07T00:11:40.503Z,50.39
2023-02-07T00:14:09.958Z,50.59
2023-02-07T00:16:39.063Z,50.69
2023-02-07T00:19:07.652Z,50.75
2023-02-07T00:21:36.748Z,50.97
2023-02-07T00:24:05.795Z,50.94
2023-02-07T00:26:34.401Z,50.81
2023-02-07T00:29:03.119Z,50.96
2023-02-07T00:31:33.899Z,50.72
2023-02-07T00:34:05.359Z,50.96
2023-02-07T00:36:35.699Z,51.44
2023-02-07T00:39:07.668Z,51.30
2023-02-07T00:41:36.486Z,51.50
2023-02-07T00:44:05.345Z,51.63
2023-02-07T00:46:35.298Z,51.59
2023-02-07T00:49:05.375Z,51.67
2023-02-07T00:51:34.382Z,51.38
2023-02-07T00:54:03.427Z,51.54
2023-02-07T00:56:32.926Z,51.73
2023-02-07T00:59:01.557Z,51.46
2023-02-07T01:01:30.419Z,51.31
2023-02-07T01:03:58.946Z,51.29
2023-02-07T01:06:28.175Z,51.46
2023-02-07T01:08:58.161Z,51.32
2023-02-07T01:11:27.973Z,51.46
2023-02-07T01:13:59.521Z,51.37
2023-02-07T01:16:36.233Z,51.54
2023-02-07T01:19:07.517Z,51.66
2023-02-07T01:21:36.457Z,51.55
2023-02-07T01:24:06.704Z,51.61
2023-02-07T01:26:36.169Z,51.73
2023-02-07T01:29:05.558Z,51.81
2023-02-07T01:31:34.427Z,51.87
2023-02-07T01:34:05.394Z,52.07
2023-02-07T01:36:34.275Z,51.73
2023-02-07T01:39:03.958Z,51.79
2023-02-07T01:41:32.393Z,51.81
2023-02-07T01:44:22.635Z,51.99
2023-02-07T01:46:52.441Z,51.79
2023-02-07T01:49:25.134Z,51.87
2023-02-07T01:51:56.709Z,51.96
2023-02-07T01:54:31.877Z,51.81
2023-02-07T01:57:05.979Z,51.86
2023-02-07T01:59:38.669Z,52.24
2023-02-07T02:02:07.097Z,51.92
2023-02-07T02:04:35.629Z,51.88
2023-02-07T02:07:06.475Z,52.15
2023-02-07T02:09:36.287Z,52.10
2023-02-07T02:12:23.459Z,52.13
2023-02-07T02:15:10.945Z,52.20
2023-02-07T02:17:55.137Z,51.94
2023-02-07T02:20:26.433Z,52.70
2023-02-07T02:23:33.825Z,52.70
2023-02-07T02:26:15.799Z,52.52
2023-02-07T02:29:05.437Z,52.53
2023-02-07T02:31:46.141Z,52.46
2023-02-07T02:34:26.402Z,53.09
2023-02-07T02:37:17.855Z,53.12
2023-02-07T02:39:54.056Z,52.99
2023-02-07T02:42:33.255Z,52.87
2023-02-07T02:45:15.011Z,52.32
2023-02-07T02:47:48.149Z,52.23
2023-02-07T02:50:25.491Z,52.37
2023-02-07T02:52:54.056Z,52.65
2023-02-07T02:55:32.755Z,52.76
2023-02-07T02:58:15.379Z,52.41
2023-02-07T03:01:21.277Z,52.47
2023-02-07T03:03:56.236Z,52.21
2023-02-07T03:07:12.070Z,52.24
2023-02-07T03:09:52.929Z,52.71
2023-02-07T03:12:47.919Z,52.69
2023-02-07T03:15:32.584Z,52.67
2023-02-07T03:18:39.902Z,52.42
2023-02-07T03:21:19.972Z,52.66
2023-02-07T03:23:52.347Z,52.49
2023-02-07T03:26:23.272Z,52.64
2023-02-07T03:28:54.062Z,52.53
2023-02-07T03:31:25.156Z,52.38
2023-02-07T03:34:04.356Z,52.46
2023-02-07T03:36:40.031Z,52.73
2023-02-07T03:39:09.076Z,52.11
2023-02-07T03:42:11.891Z,52.54
2023-02-07T03:44:42.053Z,52.53
2023-02-07T03:47:10.433Z,52.73
2023-02-07T03:49:38.812Z,52.72
2023-02-07T03:52:07.245Z,52.52
2023-02-07T03:54:35.803Z,52.75
2023-02-07T03:57:04.563Z,52.28
2023-02-07T03:59:33.010Z,53.21
2023-02-07T04:02:02.235Z,52.86
2023-02-07T04:04:30.800Z,53.73
2023-02-07T04:06:59.524Z,53.31
2023-02-07T04:09:28.014Z,53.05
2023-02-07T04:11:56.483Z,52.97
2023-02-07T04:14:25.082Z,53.05
2023-02-07T04:16:53.469Z,52.98
2023-02-07T04:19:22.059Z,52.95
2023-02-07T04:21:50.519Z,52.74
2023-02-07T04:24:19.270Z,52.37
2023-02-07T04:26:47.732Z,52.59
2023-02-07T04:29:16.557Z,52.69
2023-02-07T04:31:45.028Z,52.38
2023-02-07T04:34:13.448Z,52.52
2023-02-07T04:36:41.883Z,52.61
2023-02-07T04:39:10.268Z,52.61
2023-02-07T04:41:38.691Z,52.62
2023-02-07T04:44:07.173Z,52.46
2023-02-07T04:46:35.629Z,53.01
2023-02-07T04:49:04.354Z,53.02
2023-02-07T04:51:33.199Z,52.90
2023-02-07T04:54:01.676Z,52.75
2023-02-07T04:56:30.751Z,52.73
2023-02-07T04:58:59.250Z,52.71
2023-02-07T05:01:27.672Z,52.73
2023-02-07T05:03:56.235Z,52.57
2023-02-07T05:06:24.651Z,52.62
2023-02-07T05:08:53.151Z,52.66
2023-02-07T05:11:21.690Z,52.60
2023-02-07T05:13:50.140Z,52.82
2023-02-07T05:16:18.568Z,53.57
2023-02-07T05:18:46.996Z,53.20
2023-02-07T05:21:15.501Z,53.08
2023-02-07T05:23:43.923Z,52.94
2023-02-07T05:26:12.461Z,52.80
2023-02-07T05:28:40.810Z,52.77
2023-02-07T05:31:10.030Z,52.89
2023-02-07T05:33:38.891Z,52.77
2023-02-07T05:36:07.929Z,52.63
2023-02-07T05:38:36.457Z,52.57
2023-02-07T05:41:05.079Z,52.49
2023-02-07T05:43:33.545Z,53.02
2023-02-07T05:46:01.979Z,52.60
2023-02-07T05:48:30.414Z,52.44
2023-02-07T05:50:58.971Z,52.63
2023-02-07T05:53:27.499Z,53.36
2023-02-07T05:55:55.980Z,52.93
2023-02-07T05:58:25.545Z,52.59
2023-02-07T06:00:55.235Z,52.70
2023-02-07T06:03:23.763Z,51.93
2023-02-07T06:05:52.253Z,51.74
2023-02-07T06:08:20.733Z,51.97
2023-02-07T06:10:49.584Z,52.27
2023-02-07T06:13:18.061Z,52.10
2023-02-07T06:15:47.870Z,52.51
2023-02-07T06:18:16.652Z,52.60
2023-02-07T06:20:45.018Z,52.90
2023-02-07T06:23:13.485Z,52.52
2023-02-07T06:25:41.965Z,52.44
2023-02-07T06:28:10.569Z,52.57
2023-02-07T06:30:39.229Z,52.72
2023-02-07T06:33:07.592Z,52.88
2023-02-07T06:35:36.261Z,52.64
2023-02-07T06:38:04.797Z,52.49
2023-02-07T06:40:33.386Z,52.71
2023-02-07T06:43:01.792Z,51.46
2023-02-07T06:45:30.216Z,51.31
2023-02-07T06:47:58.624Z,51.37
2023-02-07T06:50:27.234Z,51.53
2023-02-07T06:52:55.697Z,51.23
2023-02-07T06:55:24.050Z,51.01
2023-02-07T06:57:52.453Z,50.68
2023-02-07T07:00:21.934Z,51.01
2023-02-07T07:02:50.785Z,51.37
2023-02-07T07:05:19.717Z,51.42
2023-02-07T07:07:49.034Z,51.50
2023-02-07T07:10:17.675Z,51.84
2023-02-07T07:12:47.299Z,51.72
2023-02-07T07:15:15.961Z,51.77
2023-02-07T07:17:44.394Z,51.38
2023-02-07T07:20:13.074Z,51.98
2023-02-07T07:22:41.633Z,52.28
2023-02-07T07:25:10.403Z,52.53
2023-02-07T07:27:38.924Z,53.19
2023-02-07T07:30:10.625Z,53.33
2023-02-07T07:32:39.329Z,53.37
2023-02-07T07:35:07.935Z,52.92
2023-02-07T07:37:36.406Z,52.79
2023-02-07T07:40:05.478Z,53.22
2023-02-07T07:42:35.433Z,53.05
2023-02-07T07:45:04.453Z,52.97
2023-02-07T07:47:32.962Z,53.14
2023-02-07T07:50:01.375Z,53.15
2023-02-07T07:52:29.839Z,53.34
2023-02-07T07:54:58.425Z,53.20
2023-02-07T07:57:28.255Z,53.27
2023-02-07T07:59:56.865Z,52.80
2023-02-07T08:02:25.323Z,52.83
2023-02-07T08:04:53.766Z,53.00
2023-02-07T08:07:22.153Z,52.89
2023-02-07T08:09:50.563Z,52.73
2023-02-07T08:12:19.105Z,52.88
2023-02-07T08:14:47.592Z,52.99
2023-02-07T08:17:16.066Z,53.75
2023-02-07T08:19:44.547Z,53.91
2023-02-07T08:22:14.562Z,53.82
2023-02-07T08:24:42.956Z,53.21
2023-02-07T08:27:12.818Z,52.32
2023-02-07T08:29:41.250Z,52.09
2023-02-07T08:32:09.804Z,52.38
2023-02-07T08:34:38.319Z,51.96
2023-02-07T08:37:08.505Z,52.20
2023-02-07T08:39:36.999Z,52.23
2023-02-07T08:42:08.197Z,52.03
2023-02-07T08:44:37.259Z,52.02
2023-02-07T08:47:05.735Z,51.80
2023-02-07T08:49:34.214Z,51.82
2023-02-07T08:52:02.699Z,51.84
2023-02-07T08:54:31.192Z,51.88
2023-02-07T08:56:59.616Z,51.90
2023-02-07T08:59:28.090Z,52.21
2023-02-07T09:01:56.503Z,52.03
2023-02-07T09:04:25.078Z,51.85
2023-02-07T09:06:53.609Z,52.19
2023-02-07T09:09:22.034Z,52.12
2023-02-07T09:11:50.715Z,51.68
2023-02-07T09:14:20.288Z,52.24
2023-02-07T09:16:48.792Z,52.32
2023-02-07T09:19:17.300Z,51.93
2023-02-07T09:21:45.823Z,52.04
2023-02-07T09:24:14.268Z,51.62
2023-02-07T09:26:42.612Z,51.34
2023-02-07T09:29:13.421Z,51.40
2023-02-07T09:31:42.735Z,51.31
2023-02-07T09:34:11.418Z,51.29
2023-02-07T09:36:39.838Z,51.29
2023-02-07T09:39:08.236Z,51.46
2023-02-07T09:41:43.556Z,51.14
2023-02-07T09:44:17.210Z,50.79
2023-02-07T09:46:58.267Z,50.39
2023-02-07T09:49:32.526Z,50.67
2023-02-07T09:52:03.934Z,50.66
2023-02-07T09:54:40.438Z,50.43
2023-02-07T09:57:44.122Z,50.06
2023-02-07T10:00:16.086Z,50.14
2023-02-07T10:03:15.112Z,49.98
2023-02-07T10:05:45.628Z,50.01
2023-02-07T10:08:16.709Z,49.89
2023-02-07T10:10:58.222Z,49.64
2023-02-07T10:14:04.100Z,49.51
2023-02-07T10:17:00.534Z,49.36
2023-02-07T10:19:42.405Z,49.11
2023-02-07T10:22:13.542Z,49.03
2023-02-07T10:25:14.005Z,48.83
2023-02-07T10:28:07.512Z,48.29
2023-02-07T10:30:39.920Z,47.93
2023-02-07T10:33:15.677Z,48.20
2023-02-07T10:35:45.858Z,47.39
2023-02-07T10:38:36.201Z,47.74
2023-02-07T10:41:13.860Z,47.63
2023-02-07T10:43:45.791Z,47.64
2023-02-07T10:46:20.465Z,47.25
2023-02-07T10:48:49.843Z,47.13
2023-02-07T10:51:42.609Z,46.91
2023-02-07T10:54:13.480Z,46.97
2023-02-07T10:56:51.138Z,46.55
2023-02-07T11:00:21.279Z,46.67
2023-02-07T11:02:52.229Z,46.62
2023-02-07T11:05:21.949Z,46.12
2023-02-07T11:07:58.940Z,45.45
2023-02-07T11:10:42.057Z,45.86
2023-02-07T11:13:14.608Z,45.47
2023-02-07T11:15:57.041Z,45.62
2023-02-07T11:18:31.192Z,45.57
2023-02-07T11:20:59.899Z,45.56
2023-02-07T11:23:28.445Z,45.20
2023-02-07T11:25:57.332Z,45.50
2023-02-07T11:28:31.020Z,45.27
2023-02-07T11:31:03.760Z,44.84
2023-02-07T11:33:35.120Z,44.77
2023-02-07T11:36:26.970Z,45.08
2023-02-07T11:38:58.531Z,44.43
2023-02-07T11:41:33.678Z,44.73
2023-02-07T11:44:14.366Z,45.27
2023-02-07T11:46:46.937Z,44.88
2023-02-07T11:49:43.142Z,43.96
2023-02-07T11:52:13.359Z,43.62
2023-02-07T11:54:47.803Z,43.74
2023-02-07T11:57:19.596Z,43.51
2023-02-07T11:59:58.545Z,42.86
2023-02-07T12:02:29.749Z,43.79
2023-02-07T12:05:15.094Z,43.24
2023-02-07T12:07:51.054Z,42.98
2023-02-07T12:10:35.698Z,43.34
2023-02-07T12:13:14.613Z,42.97
2023-02-07T12:15:52.845Z,42.80
2023-02-07T12:18:33.527Z,42.06
2023-02-07T12:21:24.743Z,42.33
2023-02-07T12:24:22.701Z,42.12
2023-02-07T12:27:00.127Z,42.18
2023-02-07T12:29:43.213Z,42.08
2023-02-07T12:32:33.490Z,41.91
2023-02-07T12:35:15.918Z,41.86
2023-02-07T12:38:16.676Z,41.70
2023-02-07T12:40:54.278Z,41.63
2023-02-07T12:43:28.930Z,41.49
2023-02-07T12:46:00.632Z,40.78
2023-02-07T12:48:47.501Z,41.11
2023-02-07T12:51:42.464Z,41.09
2023-02-07T12:54:29.991Z,41.17
2023-02-07T12:57:08.265Z,41.41
2023-02-07T12:59:42.980Z,41.20
2023-02-07T13:02:30.604Z,40.70
2023-02-07T13:05:29.587Z,40.41
2023-02-07T13:08:15.713Z,40.40
2023-02-07T13:11:03.161Z,41.06
2023-02-07T13:13:41.510Z,40.37
2023-02-07T13:16:58.148Z,40.48
2023-02-07T13:20:11.496Z,40.20
2023-02-07T13:22:53.348Z,40.72
2023-02-07T13:25:37.059Z,40.36
2023-02-07T13:28:13.491Z,39.82
2023-02-07T13:30:42.272Z,38.86
2023-02-07T13:33:27.757Z,39.75
2023-02-07T13:36:02.266Z,39.90
2023-02-07T13:39:09.188Z,39.74
2023-02-07T13:42:07.775Z,40.19
2023-02-07T13:44:55.228Z,39.48
2023-02-07T13:48:37.628Z,39.71
2023-02-07T13:51:28.934Z,39.61
2023-02-07T13:54:12.531Z,39.04
2023-02-07T13:57:17.533Z,39.76
2023-02-07T14:00:16.229Z,39.03
2023-02-07T14:02:52.298Z,39.24
2023-02-07T14:05:35.720Z,38.92
2023-02-07T14:08:22.112Z,38.24
2023-02-07T14:10:51.525Z,38.97
2023-02-07T14:13:26.151Z,38.95
2023-02-07T14:15:58.937Z,38.15
2023-02-07T14:18:31.262Z,38.34
2023-02-07T14:21:01.738Z,39.14
2023-02-07T14:23:49.025Z,38.95
2023-02-07T14:26:44.843Z,38.95
2023-02-07T14:29:27.001Z,39.10
2023-02-07T14:32:21.618Z,38.99
2023-02-07T14:35:25.345Z,38.96
2023-02-07T14:38:01.131Z,39.00
2023-02-07T14:40:44.500Z,38.83
2023-02-07T14:43:12.871Z,38.58
2023-02-07T14:46:16.297Z,38.73
2023-02-07T14:48:47.594Z,38.19
2023-02-07T14:51:24.812Z,38.03
2023-02-07T14:54:27.520Z,37.75
2023-02-07T14:57:08.067Z,37.86
2023-02-07T14:59:47.465Z,37.80
2023-02-07T15:02:28.072Z,37.78
2023-02-07T15:04:57.156Z,38.05
2023-02-07T15:07:25.627Z,38.03
2023-02-07T15:09:54.083Z,37.54
2023-02-07T15:12:27.736Z,37.31
2023-02-07T15:14:57.157Z,37.71
2023-02-07T15:17:33.429Z,36.92
2023-02-07T15:20:05.152Z,36.92
2023-02-07T15:22:33.661Z,37.52
2023-02-07T15:25:02.171Z,37.45
2023-02-07T15:27:30.699Z,37.58
2023-02-07T15:30:05.419Z,37.56
2023-02-07T15:32:42.256Z,37.97
2023-02-07T15:35:18.732Z,38.27
2023-02-07T15:37:48.856Z,38.13
2023-02-07T15:40:21.200Z,37.75
2023-02-07T15:42:57.450Z,38.11
2023-02-07T15:45:31.384Z,37.77
2023-02-07T15:48:14.780Z,37.56
2023-02-07T15:50:43.239Z,37.80
2023-02-07T15:53:23.833Z,37.60
2023-02-07T15:55:53.213Z,37.86
2023-02-07T15:58:34.851Z,37.80
2023-02-07T16:01:16.135Z,37.82
2023-02-07T16:03:46.313Z,37.96
2023-02-07T16:06:30.362Z,37.87
2023-02-07T16:09:01.635Z,37.48
2023-02-07T16:11:30.424Z,37.33
2023-02-07T16:14:17.682Z,38.26
2023-02-07T16:16:54.910Z,38.21
2023-02-07T16:19:28.037Z,38.56
2023-02-07T16:22:11.408Z,37.66
2023-02-07T16:24:43.329Z,38.46
2023-02-07T16:27:19.040Z,38.47
2023-02-07T16:29:48.098Z,38.45
2023-02-07T16:32:16.963Z,38.87
2023-02-07T16:34:59.008Z,38.33
2023-02-07T16:37:29.075Z,38.37
2023-02-07T16:39:57.637Z,38.32
2023-02-07T16:42:26.134Z,38.81
2023-02-07T16:44:54.539Z,38.09
2023-02-07T16:47:23.743Z,38.95
2023-02-07T16:49:52.341Z,38.97
2023-02-07T16:52:20.889Z,39.04
2023-02-07T16:54:49.463Z,38.78
2023-02-07T16:57:18.001Z,39.20
2023-02-07T16:59:46.433Z,39.35
2023-02-07T17:02:16.299Z,39.22
2023-02-07T17:04:44.845Z,39.43
2023-02-07T17:07:13.284Z,39.22
2023-02-07T17:09:42.908Z,39.40
2023-02-07T17:12:14.409Z,39.76
2023-02-07T17:14:42.841Z,39.60
2023-02-07T17:17:12.499Z,39.54
2023-02-07T17:19:41.124Z,39.75
2023-02-07T17:22:09.582Z,39.69
2023-02-07T17:24:37.988Z,39.57
2023-02-07T17:27:06.626Z,39.59
2023-02-07T17:29:35.011Z,39.82
2023-02-07T17:32:03.488Z,39.50
2023-02-07T17:34:32.109Z,39.74
2023-02-07T17:37:00.626Z,39.75
2023-02-07T17:39:29.068Z,39.82
2023-02-07T17:41:57.472Z,39.74
2023-02-07T17:44:28.177Z,39.66
2023-02-07T17:46:56.920Z,39.70
2023-02-07T17:49:25.437Z,39.70
2023-02-07T17:51:53.814Z,39.78
2023-02-07T17:54:22.206Z,39.79
2023-02-07T17:56:50.615Z,40.01
2023-02-07T17:59:24.500Z,39.64
2023-02-07T18:01:52.995Z,40.11
2023-02-07T18:04:22.164Z,39.87
2023-02-07T18:06:50.752Z,39.22
2023-02-07T18:09:20.101Z,39.94
2023-02-07T18:11:49.343Z,39.69
2023-02-07T18:14:17.934Z,39.99
2023-02-07T18:16:46.664Z,39.78
2023-02-07T18:19:17.286Z,39.21
2023-02-07T18:21:45.710Z,39.54
2023-02-07T18:24:14.252Z,39.97
2023-02-07T18:26:43.090Z,39.66
2023-02-07T18:29:11.537Z,39.55
2023-02-07T18:31:40.119Z,39.75
2023-02-07T18:34:09.796Z,39.34
2023-02-07T18:36:40.422Z,39.82
2023-02-07T18:39:10.570Z,39.48
2023-02-07T18:41:39.173Z,39.98
2023-02-07T18:44:07.973Z,39.09
2023-02-07T18:46:37.360Z,39.45
2023-02-07T18:49:06.145Z,39.17
2023-02-07T18:51:34.851Z,39.35
2023-02-07T18:54:03.286Z,39.71
2023-02-07T18:56:35.283Z,39.63
2023-02-07T18:59:05.098Z,39.71
2023-02-07T19:01:35.276Z,39.20
2023-02-07T19:04:03.941Z,39.62
2023-02-07T19:06:33.663Z,39.50
2023-02-07T19:09:03.347Z,39.50
2023-02-07T19:11:32.180Z,39.51
2023-02-07T19:14:00.800Z,39.79
2023-02-07T19:16:29.505Z,39.40
2023-02-07T19:18:59.016Z,39.61
2023-02-07T19:21:27.526Z,39.48
2023-02-07T19:23:57.724Z,39.65
2023-02-07T19:26:26.449Z,39.15
2023-02-07T19:28:54.911Z,39.05
2023-02-07T19:31:24.635Z,39.26
2023-02-07T19:33:54.192Z,39.09
2023-02-07T19:36:24.343Z,39.30
2023-02-07T19:38:54.314Z,39.39
2023-02-07T19:41:24.906Z,39.40
2023-02-07T19:43:53.840Z,38.93
2023-02-07T19:46:22.881Z,39.29
2023-02-07T19:48:51.804Z,39.61
2023-02-07T19:51:27.291Z,39.46
2023-02-07T19:53:56.657Z,39.87
2023-02-07T19:56:27.264Z,39.81
2023-02-07T19:58:56.323Z,40.14
2023-02-07T20:01:26.243Z,40.34
2023-02-07T20:03:55.702Z,40.11
2023-02-07T20:06:29.170Z,40.27
2023-02-07T20:08:59.817Z,39.74
2023-02-07T20:11:28.986Z,39.52
2023-02-07T20:14:02.749Z,39.82
2023-02-07T20:16:34.334Z,39.69
2023-02-07T20:19:05.674Z,39.71
2023-02-07T20:21:35.814Z,39.78
2023-02-07T20:24:05.197Z,40.00
2023-02-07T20:26:46.493Z,39.86
2023-02-07T20:29:17.714Z,40.03
2023-02-07T20:31:47.668Z,39.87
2023-02-07T20:34:16.486Z,39.79
2023-02-07T20:36:44.994Z,39.97
2023-02-07T20:39:15.764Z,40.13
2023-02-07T20:41:46.108Z,40.22
2023-02-07T20:44:20.407Z,40.05
2023-02-07T20:46:50.662Z,40.30
2023-02-07T20:49:27.176Z,40.24
2023-02-07T20:51:57.287Z,40.24
2023-02-07T20:54:27.731Z,40.18
2023-02-07T20:56:56.697Z,40.54
2023-02-07T20:59:32.659Z,40.82
2023-02-07T21:02:01.637Z,40.72
2023-02-07T21:04:30.469Z,40.44
2023-02-07T21:06:58.901Z,40.30
2023-02-07T21:09:28.337Z,40.80
2023-02-07T21:11:57.920Z,40.57
2023-02-07T21:14:30.145Z,40.82
2023-02-07T21:17:01.277Z,40.77
2023-02-07T21:19:29.982Z,41.25
2023-02-07T21:21:58.504Z,41.50
2023-02-07T21:24:27.072Z,40.89
2023-02-07T21:26:56.763Z,40.55
2023-02-07T21:29:26.203Z,40.05
2023-02-07T21:31:54.864Z,40.78
2023-02-07T21:34:25.283Z,40.84
2023-02-07T21:36:54.005Z,40.79
2023-02-07T21:39:24.297Z,40.75
2023-02-07T21:41:53.206Z,41.17
2023-02-07T21:44:22.148Z,41.02
2023-02-07T21:46:51.332Z,41.04
2023-02-07T21:49:20.894Z,40.61
2023-02-07T21:51:53.274Z,40.86
2023-02-07T21:54:21.873Z,40.44
2023-02-07T21:56:51.056Z,40.95
2023-02-07T21:59:20.885Z,40.84
2023-02-07T22:01:49.902Z,41.16
2023-02-07T22:04:18.597Z,41.70
2023-02-07T22:06:49.109Z,41.77
2023-02-07T22:09:19.724Z,41.85
2023-02-07T22:11:48.264Z,41.96
2023-02-07T22:14:17.787Z,42.01
2023-02-07T22:16:49.596Z,42.17
2023-02-07T22:19:18.876Z,42.23
2023-02-07T22:21:50.520Z,42.38
2023-02-07T22:24:19.914Z,41.99
2023-02-07T22:26:48.533Z,42.37
2023-02-07T22:29:17.078Z,42.50
2023-02-07T22:31:45.587Z,42.71
2023-02-07T22:34:14.646Z,42.72
2023-02-07T22:36:44.678Z,42.43
2023-02-07T22:39:16.256Z,42.47
2023-02-07T22:41:44.846Z,42.17
2023-02-07T22:44:13.662Z,42.67
2023-02-07T22:46:43.428Z,42.58
2023-02-07T22:49:12.187Z,42.76
2023-02-07T22:51:40.634Z,42.72
2023-02-07T22:54:15.265Z,42.68
2023-02-07T22:56:45.154Z,42.76
2023-02-07T22:59:14.990Z,42.41
2023-02-07T23:01:44.624Z,42.51
2023-02-07T23:04:17.293Z,42.64
2023-02-07T23:06:47.028Z,42.82
2023-02-07T23:09:16.317Z,42.98
2023-02-07T23:11:44.830Z,42.93
2023-02-07T23:14:13.401Z,42.75
2023-02-07T23:16:43.031Z,42.79
2023-02-07T23:19:14.162Z,43.07
2023-02-07T23:21:43.380Z,42.80
2023-02-07T23:24:12.030Z,42.95
2023-02-07T23:26:40.952Z,43.27
2023-02-07T23:29:09.410Z,43.01
2023-02-07T23:31:37.873Z,43.14
2023-02-07T23:34:06.342Z,43.40
2023-02-07T23:36:35.842Z,42.68
2023-02-07T23:39:04.871Z,43.16
2023-02-07T23:41:33.339Z,43.18
2023-02-07T23:44:02.574Z,43.07
2023-02-07T23:46:32.648Z,43.13
2023-02-07T23:49:01.493Z,43.28
2023-02-07T23:51:29.936Z,43.30
2023-02-07T23:53:58.401Z,43.11
2023-02-07T23:56:27.419Z,43.36
2023-02-07T23:58:55.911Z,43.46
